Time;durP1;ratioP1;P1;durP2;ratioP2;P2;SDS_P1;SDS_P2;PMS_P1;PMS_P2;Temp;Humidity;BMP_temperature;BMP_pressure;BME280_temperature;BME280_humidity;BME280_pressure;Samples;Min_cycle;Max_cycle;Signal;HPM_P1;HPM_P2
2022/10/17 00:00:52;;;;;;;4.38;2.03;;;;;;;;;;5129457;27;20047;-72
2022/10/17 00:03:21;;;;;;;4.68;2.40;;;;;;;;;;5129722;27;20057;-72
2022/10/17 00:05:51;;;;;;;3.92;1.88;;;;;;;;;;5130111;27;20051;-72
2022/10/17 00:08:21;;;;;;;8.63;2.03;;;;;;;;;;5127846;27;20058;-72
2022/10/17 00:11:03;;;;;;;2.83;1.92;;;;;;;;;;5129835;27;20543;-72
2022/10/17 00:13:34;;;;;;;6.03;3.00;;;;;;;;;;5129277;27;20051;-72
2022/10/17 00:16:04;;;;;;;5.13;2.17;;;;;;;;;;5129175;27;20055;-72
2022/10/17 00:18:34;;;;;;;4.45;2.25;;;;;;;;;;5129500;27;20047;-72
2022/10/17 00:21:04;;;;;;;4.85;2.17;;;;;;;;;;5129021;27;20405;-72
2022/10/17 00:23:34;;;;;;;4.63;2.33;;;;;;;;;;5128952;27;20051;-76
2022/10/17 00:26:05;;;;;;;5.80;2.45;;;;;;;;;;5127690;27;20046;-72
2022/10/17 00:28:35;;;;;;;4.57;2.13;;;;;;;;;;5129074;27;20059;-72
2022/10/17 00:31:06;;;;;;;4.00;2.25;;;;;;;;;;5128306;27;20070;-72
2022/10/17 00:33:38;;;;;;;3.88;2.13;;;;;;;;;;5126968;27;20062;-73
2022/10/17 00:36:13;;;;;;;4.53;2.45;;;;;;;;;;5128671;27;20514;-72
2022/10/17 00:38:45;;;;;;;5.25;2.05;;;;;;;;;;5128065;27;20066;-72
2022/10/17 00:41:18;;;;;;;4.13;2.35;;;;;;;;;;5128096;27;20050;-71
2022/10/17 00:44:26;;;;;;;7.47;2.28;;;;;;;;;;5128587;27;20039;-71
2022/10/17 00:47:05;;;;;;;5.57;2.10;;;;;;;;;;5113023;27;20104;-71
2022/10/17 00:49:37;;;;;;;5.22;2.50;;;;;;;;;;5128146;27;20930;-72
2022/10/17 00:52:18;;;;;;;5.00;2.50;;;;;;;;;;5126591;27;20525;-72
2022/10/17 00:54:54;;;;;;;6.28;2.60;;;;;;;;;;5128615;27;20466;-70
2022/10/17 00:57:26;;;;;;;6.00;2.67;;;;;;;;;;5127529;27;20055;-72
2022/10/17 00:59:59;;;;;;;5.38;2.40;;;;;;;;;;5128912;27;20051;-73
2022/10/17 01:02:29;;;;;;;4.93;2.78;;;;;;;;;;5126835;27;20059;-76
2022/10/17 01:04:59;;;;;;;4.53;2.33;;;;;;;;;;5128405;27;20040;-73
2022/10/17 01:07:30;;;;;;;4.32;2.10;;;;;;;;;;5127610;27;20536;-72
2022/10/17 01:10:05;;;;;;;;;;;;;;;;;;5128991;27;20059;-71
2022/10/17 01:13:10;;;;;;;3.95;1.88;;;;;;;;;;5128342;27;19929;-73
2022/10/17 01:16:19;;;;;;;8.77;1.85;;;;;;;;;;5126775;27;20047;-72
2022/10/17 01:19:00;;;;;;;7.35;2.33;;;;;;;;;;5114507;27;20051;-72
2022/10/17 01:21:45;;;;;;;4.70;2.00;;;;;;;;;;5127889;27;20502;-73
2022/10/17 01:24:34;;;;;;;5.88;2.28;;;;;;;;;;5126933;27;20059;-72
2022/10/17 01:27:26;;;;;;;6.72;2.05;;;;;;;;;;5127529;27;20035;-72
2022/10/17 01:30:23;;;;;;;6.97;1.95;;;;;;;;;;5126325;27;20043;-72
2022/10/17 01:33:01;;;;;;;5.40;2.05;;;;;;;;;;5127013;27;20051;-72
2022/10/17 01:35:44;;;;;;;8.25;2.08;;;;;;;;;;5128568;27;20066;-72
2022/10/17 01:38:17;;;;;;;4.75;2.00;;;;;;;;;;5127657;27;20051;-73
2022/10/17 01:40:59;;;;;;;4.05;2.10;;;;;;;;;;5126119;27;20514;-72
2022/10/17 01:44:03;;;;;;;4.25;2.10;;;;;;;;;;5126524;27;20074;-72
2022/10/17 01:46:44;;;;;;;5.40;2.05;;;;;;;;;;5115968;27;20047;-72
2022/10/17 01:49:19;;;;;;;7.63;2.75;;;;;;;;;;5127052;27;20062;-72
2022/10/17 01:51:59;;;;;;;2.88;1.85;;;;;;;;;;5126224;27;20044;-71
2022/10/17 01:54:42;;;;;;;5.68;2.60;;;;;;;;;;5126893;27;20505;-72
2022/10/17 01:57:36;;;;;;;4.68;1.95;;;;;;;;;;5124062;27;20055;-72
2022/10/17 02:00:13;;;;;;;3.20;2.05;;;;;;;;;;5111639;27;20074;-73
2022/10/17 02:02:45;;;;;;;5.32;2.58;;;;;;;;;;5128170;27;20457;-72
2022/10/17 02:05:21;;;;;;;14.77;3.08;;;;;;;;;;5125102;27;20062;-73
2022/10/17 02:07:51;;;;;;;6.38;2.13;;;;;;;;;;5125469;27;20145;-73
2022/10/17 02:10:48;;;;;;;4.78;2.17;;;;;;;;;;5125283;27;20555;-72
2022/10/17 02:13:45;;;;;;;5.43;2.10;;;;;;;;;;5125227;27;20058;-72
2022/10/17 02:16:35;;;;;;;3.95;2.53;;;;;;;;;;5126375;27;20063;-72
2022/10/17 02:19:10;;;;;;;4.80;2.30;;;;;;;;;;5125144;27;20056;-72
2022/10/17 02:22:13;;;;;;;6.72;2.50;;;;;;;;;;5125397;27;20054;-72
2022/10/17 02:25:00;;;;;;;5.85;2.40;;;;;;;;;;5125512;27;20062;-72
2022/10/17 02:27:53;;;;;;;10.60;2.40;;;;;;;;;;5126856;27;20410;-72
2022/10/17 02:30:33;;;;;;;4.88;2.10;;;;;;;;;;5126424;27;20050;-73
2022/10/17 02:33:12;;;;;;;3.60;2.38;;;;;;;;;;5125833;28;20518;-72
2022/10/17 02:35:48;;;;;;;6.45;2.63;;;;;;;;;;5127211;28;20058;-72
2022/10/17 02:38:20;;;;;;;5.38;2.47;;;;;;;;;;5125548;27;20059;-72
2022/10/17 02:40:53;;;;;;;6.38;2.30;;;;;;;;;;5126042;27;20047;-72
2022/10/17 02:43:23;;;;;;;4.57;2.30;;;;;;;;;;5125663;28;20058;-73
2022/10/17 02:45:53;;;;;;;6.60;2.88;;;;;;;;;;5125827;28;20524;-73
2022/10/17 02:49:07;;;;;;;10.07;2.70;;;;;;;;;;5125604;27;20062;-72
2022/10/17 02:52:02;;;;;;;2.63;1.75;;;;;;;;;;5126626;28;20047;-72
2022/10/17 02:54:41;;;;;;;6.63;2.70;;;;;;;;;;5120493;28;20065;-72
2022/10/17 02:57:21;;;;;;;5.35;2.28;;;;;;;;;;5127517;27;20054;-72
2022/10/17 02:59:52;;;;;;;6.07;2.33;;;;;;;;;;5130163;27;20050;-72
2022/10/17 03:02:24;;;;;;;3.92;2.17;;;;;;;;;;5129945;27;20520;-72
2022/10/17 03:04:55;;;;;;;4.70;2.22;;;;;;;;;;5129611;27;20047;-72
2022/10/17 03:07:25;;;;;;;4.13;2.20;;;;;;;;;;5129560;27;20051;-72
2022/10/17 03:09:56;;;;;;;5.60;2.13;;;;;;;;;;5129762;27;20363;-72
2022/10/17 03:12:26;;;;;;;3.42;2.00;;;;;;;;;;5138101;27;20422;-72
2022/10/17 03:14:56;;;;;;;3.90;2.30;;;;;;;;;;5133771;27;20051;-72
2022/10/17 03:17:26;;;;;;;5.40;2.42;;;;;;;;;;5130023;27;20058;-71
2022/10/17 03:19:55;;;;;;;7.13;2.35;;;;;;;;;;5130328;27;20050;-72
2022/10/17 03:22:26;;;;;;;6.60;2.70;;;;;;;;;;5129945;27;20859;-72
2022/10/17 03:24:58;;;;;;;8.25;2.65;;;;;;;;;;5130257;27;20047;-72
2022/10/17 03:27:28;;;;;;;6.55;2.33;;;;;;;;;;5129589;27;20051;-73
2022/10/17 03:29:59;;;;;;;8.73;2.63;;;;;;;;;;5130477;27;20058;-72
2022/10/17 03:32:33;;;;;;;4.60;2.53;;;;;;;;;;5129345;27;20055;-72
2022/10/17 03:35:03;;;;;;;4.93;2.78;;;;;;;;;;5130163;27;20054;-74
2022/10/17 03:37:33;;;;;;;5.40;3.10;;;;;;;;;;5128837;27;20054;-75
2022/10/17 03:40:04;;;;;;;6.00;2.80;;;;;;;;;;5129193;27;20086;-72
2022/10/17 03:42:34;;;;;;;4.32;2.97;;;;;;;;;;5129341;27;20055;-72
2022/10/17 03:45:04;;;;;;;6.30;2.90;;;;;;;;;;5129283;27;20051;-72
2022/10/17 03:47:34;;;;;;;4.13;2.25;;;;;;;;;;5128966;27;20074;-72
2022/10/17 03:50:04;;;;;;;7.57;3.13;;;;;;;;;;5129118;27;20521;-72
2022/10/17 03:52:36;;;;;;;5.97;2.67;;;;;;;;;;5129460;27;20516;-72
2022/10/17 03:55:07;;;;;;;6.47;3.28;;;;;;;;;;5128959;27;20055;-72
2022/10/17 03:57:38;;;;;;;6.07;2.88;;;;;;;;;;5128614;27;20047;-73
2022/10/17 04:00:15;;;;;;;5.00;2.55;;;;;;;;;;5128610;27;20055;-73
2022/10/17 04:02:53;;;;;;;6.80;2.20;;;;;;;;;;5128614;27;20047;-72
2022/10/17 04:05:24;;;;;;;8.90;2.60;;;;;;;;;;5128835;27;20532;-73
2022/10/17 04:07:54;;;;;;;6.13;2.63;;;;;;;;;;5111391;27;20061;-72
2022/10/17 04:10:48;;;;;;;5.95;2.90;;;;;;;;;;5128040;27;20366;-73
2022/10/17 04:13:18;;;;;;;4.07;2.50;;;;;;;;;;5128436;27;20054;-72
2022/10/17 04:16:06;;;;;;;4.82;2.88;;;;;;;;;;5128430;27;20047;-73
2022/10/17 04:18:40;;;;;;;5.93;2.72;;;;;;;;;;5127259;27;20109;-72
2022/10/17 04:21:12;;;;;;;5.95;2.42;;;;;;;;;;5130088;27;20054;-72
2022/10/17 04:23:43;;;;;;;5.05;2.45;;;;;;;;;;5128255;27;20051;-72
2022/10/17 04:26:27;;;;;;;7.70;2.88;;;;;;;;;;5128176;27;20051;-72
2022/10/17 04:28:56;;;;;;;4.85;2.55;;;;;;;;;;5128000;27;20055;-72
2022/10/17 04:31:27;;;;;;;7.93;3.10;;;;;;;;;;5128511;27;20066;-73
2022/10/17 04:34:14;;;;;;;5.32;2.83;;;;;;;;;;5128319;27;20047;-72
2022/10/17 04:36:46;;;;;;;4.85;2.63;;;;;;;;;;5128132;27;20552;-73
2022/10/17 04:39:15;;;;;;;6.20;2.92;;;;;;;;;;5128840;27;20432;-72
2022/10/17 04:41:47;;;;;;;9.63;2.67;;;;;;;;;;5127979;27;20047;-72
2022/10/17 04:44:17;;;;;;;9.00;3.30;;;;;;;;;;5127855;27;20051;-73
2022/10/17 04:46:51;;;;;;;4.82;2.63;;;;;;;;;;5128081;27;20425;-72
2022/10/17 04:49:23;;;;;;;6.45;2.80;;;;;;;;;;5128421;27;20055;-71
2022/10/17 04:51:57;;;;;;;4.68;2.60;;;;;;;;;;5127981;27;20054;-70
2022/10/17 04:54:52;;;;;;;5.57;3.15;;;;;;;;;;5126860;27;20046;-71
2022/10/17 04:57:23;;;;;;;7.25;3.33;;;;;;;;;;5128695;27;20031;-72
2022/10/17 05:00:02;;;;;;;6.63;3.30;;;;;;;;;;5127343;27;20055;-72
2022/10/17 05:02:47;;;;;;;5.75;2.70;;;;;;;;;;5132307;27;20054;-72
2022/10/17 05:05:17;;;;;;;12.02;3.67;;;;;;;;;;5126864;27;20445;-72
2022/10/17 05:07:50;;;;;;;9.27;5.00;;;;;;;;;;5127448;27;20050;-72
2022/10/17 05:10:24;;;;;;;8.77;4.45;;;;;;;;;;5110950;27;20058;-72
2022/10/17 05:12:54;;;;;;;9.90;4.80;;;;;;;;;;5126992;27;20062;-73
2022/10/17 05:15:28;;;;;;;9.52;4.18;;;;;;;;;;5127926;27;20066;-72
2022/10/17 05:17:59;;;;;;;10.52;5.10;;;;;;;;;;5127041;27;20055;-71
2022/10/17 05:20:30;;;;;;;7.45;3.55;;;;;;;;;;5126292;27;20387;-73
2022/10/17 05:23:01;;;;;;;8.73;4.20;;;;;;;;;;5126927;27;20169;-72
2022/10/17 05:25:35;;;;;;;10.02;4.45;;;;;;;;;;5126493;27;20055;-72
2022/10/17 05:28:06;;;;;;;8.63;4.00;;;;;;;;;;5126819;27;20058;-72
2022/10/17 05:30:38;;;;;;;10.23;4.40;;;;;;;;;;5127253;27;20074;-72
2022/10/17 05:33:09;;;;;;;7.57;4.18;;;;;;;;;;5126342;27;20801;-73
2022/10/17 05:35:40;;;;;;;8.20;3.90;;;;;;;;;;5126718;27;20069;-72
2022/10/17 05:38:10;;;;;;;8.05;3.45;;;;;;;;;;5126874;27;20055;-72
2022/10/17 05:40:42;;;;;;;7.28;3.15;;;;;;;;;;5126629;27;20065;-72
2022/10/17 05:43:13;;;;;;;8.68;3.70;;;;;;;;;;5126749;27;20406;-72
2022/10/17 05:45:45;;;;;;;8.85;3.83;;;;;;;;;;5126533;27;20051;-73
2022/10/17 05:48:20;;;;;;;6.90;3.35;;;;;;;;;;5127232;27;20055;-72
2022/10/17 05:50:58;;;;;;;8.38;3.75;;;;;;;;;;5126578;27;20058;-72
2022/10/17 05:53:31;;;;;;;6.57;3.45;;;;;;;;;;5126950;27;20043;-73
2022/10/17 05:56:07;;;;;;;8.40;3.80;;;;;;;;;;5126219;27;20051;-73
2022/10/17 05:58:41;;;;;;;9.98;3.63;;;;;;;;;;5126300;27;20051;-73
2022/10/17 06:01:43;;;;;;;9.57;3.20;;;;;;;;;;5126886;27;20544;-72
2022/10/17 06:04:13;;;;;;;9.00;3.85;;;;;;;;;;5126610;27;20054;-72
2022/10/17 06:06:43;;;;;;;6.28;4.00;;;;;;;;;;5125724;27;20058;-73
2022/10/17 06:09:13;;;;;;;9.45;3.63;;;;;;;;;;5109284;27;20081;-72
2022/10/17 06:11:47;;;;;;;13.35;5.10;;;;;;;;;;5126432;27;20055;-72
2022/10/17 06:14:17;;;;;;;8.52;3.42;;;;;;;;;;5127009;27;20058;-72
2022/10/17 06:16:50;;;;;;;10.60;3.63;;;;;;;;;;5126069;27;20043;-72
2022/10/17 06:19:20;;;;;;;7.47;3.42;;;;;;;;;;5126012;27;20051;-72
2022/10/17 06:21:50;;;;;;;7.10;3.55;;;;;;;;;;5126266;27;20082;-72
2022/10/17 06:24:23;;;;;;;5.47;3.08;;;;;;;;;;5110532;27;20422;-73
2022/10/17 06:26:54;;;;;;;8.05;3.30;;;;;;;;;;5126115;27;20055;-72
2022/10/17 06:29:23;;;;;;;6.30;3.20;;;;;;;;;;5126139;27;20501;-72
2022/10/17 06:31:53;;;;;;;5.68;3.10;;;;;;;;;;5125232;27;20425;-73
2022/10/17 06:34:24;;;;;;;7.05;3.53;;;;;;;;;;5126221;27;20055;-73
2022/10/17 06:36:54;;;;;;;5.82;2.53;;;;;;;;;;5125005;28;20043;-73
2022/10/17 06:39:32;;;;;;;4.70;2.90;;;;;;;;;;5125979;27;20040;-72
2022/10/17 06:42:06;;;;;;;;;;;;;;;;;;5126734;27;20160;-73
2022/10/17 06:45:00;;;;;;;7.32;3.00;;;;;;;;;;5124023;27;19927;-72
2022/10/17 06:47:42;;;;;;;9.15;2.95;;;;;;;;;;5126144;27;20600;-73
2022/10/17 06:50:27;;;;;;;7.65;2.92;;;;;;;;;;5125804;27;20073;-72
2022/10/17 06:53:12;;;;;;;10.30;4.03;;;;;;;;;;5126860;27;20054;-72
2022/10/17 06:55:50;;;;;;;6.93;2.90;;;;;;;;;;5130742;27;20518;-73
2022/10/17 06:58:40;;;;;;;7.57;3.30;;;;;;;;;;5125966;27;20620;-73
2022/10/17 07:01:31;;;;;;;4.97;2.90;;;;;;;;;;5126141;27;20059;-72
2022/10/17 07:04:04;;;;;;;8.25;3.65;;;;;;;;;;5125655;27;20058;-73
2022/10/17 07:06:34;;;;;;;6.80;3.60;;;;;;;;;;5125782;27;20055;-73
2022/10/17 07:09:10;;;;;;;5.32;3.13;;;;;;;;;;5109774;28;20051;-73
2022/10/17 07:11:40;;;;;;;6.57;2.55;;;;;;;;;;5125739;28;20058;-72
2022/10/17 07:14:10;;;;;;;9.95;3.25;;;;;;;;;;5126812;28;20055;-72
2022/10/17 07:16:40;;;;;;;4.13;2.60;;;;;;;;;;5125466;27;20409;-72
2022/10/17 07:19:22;;;;;;;9.50;3.50;;;;;;;;;;5125923;27;20537;-72
2022/10/17 07:21:52;;;;;;;6.03;2.28;;;;;;;;;;5124694;27;20555;-72
2022/10/17 07:24:22;;;;;;;4.68;3.15;;;;;;;;;;5127336;28;20121;-72
2022/10/17 07:26:59;;;;;;;4.50;2.35;;;;;;;;;;5125378;27;20428;-72
2022/10/17 07:29:29;;;;;;;8.02;2.60;;;;;;;;;;5125947;27;20067;-73
2022/10/17 07:32:07;;;;;;;7.18;3.15;;;;;;;;;;5125638;27;20051;-72
2022/10/17 07:34:37;;;;;;;8.32;3.10;;;;;;;;;;5125762;28;20058;-71
2022/10/17 07:37:09;;;;;;;9.70;3.05;;;;;;;;;;5125677;27;20055;-72
2022/10/17 07:39:44;;;;;;;5.13;2.50;;;;;;;;;;5125790;28;20054;-72
2022/10/17 07:42:14;;;;;;;4.93;2.33;;;;;;;;;;5126576;28;20050;-71
2022/10/17 07:44:46;;;;;;;4.25;2.60;;;;;;;;;;5128195;27;20698;-73
2022/10/17 07:47:16;;;;;;;5.15;2.20;;;;;;;;;;5129222;27;20052;-72
2022/10/17 07:49:47;;;;;;;4.50;2.45;;;;;;;;;;5129118;27;20051;-72
2022/10/17 07:52:18;;;;;;;6.35;2.10;;;;;;;;;;5128841;27;20536;-72
2022/10/17 07:54:47;;;;;;;5.53;2.17;;;;;;;;;;5129668;27;20050;-72
2022/10/17 07:57:17;;;;;;;4.72;1.70;;;;;;;;;;5129641;27;20047;-73
2022/10/17 07:59:47;;;;;;;7.82;2.15;;;;;;;;;;5129599;27;20047;-74
2022/10/17 08:02:27;;;;;;;4.90;2.25;;;;;;;;;;5129466;27;20047;-73
2022/10/17 08:04:57;;;;;;;4.15;1.80;;;;;;;;;;5129862;27;20043;-72
2022/10/17 08:07:27;;;;;;;5.05;2.20;;;;;;;;;;5130316;27;20478;-72
2022/10/17 08:09:57;;;;;;;4.75;2.08;;;;;;;;;;5129358;27;20409;-71
2022/10/17 08:12:30;;;;;;;3.78;1.90;;;;;;;;;;5129426;27;20047;-73
2022/10/17 08:15:01;;;;;;;2.70;1.80;;;;;;;;;;5129448;27;20058;-72
2022/10/17 08:17:32;;;;;;;3.08;1.55;;;;;;;;;;5129539;27;20417;-72
2022/10/17 08:20:02;;;;;;;4.03;1.73;;;;;;;;;;5129386;27;20414;-72
2022/10/17 08:22:33;;;;;;;5.57;1.65;;;;;;;;;;5129050;27;20043;-73
2022/10/17 08:25:03;;;;;;;5.82;1.48;;;;;;;;;;5129276;27;20043;-73
2022/10/17 08:27:34;;;;;;;4.40;1.70;;;;;;;;;;5129271;27;20055;-73
2022/10/17 08:30:05;;;;;;;3.10;1.25;;;;;;;;;;5129425;27;20047;-72
2022/10/17 08:32:35;;;;;;;4.75;1.98;;;;;;;;;;5128727;27;20051;-73
2022/10/17 08:35:05;;;;;;;3.72;1.70;;;;;;;;;;5129604;27;20058;-73
2022/10/17 08:37:35;;;;;;;6.47;1.90;;;;;;;;;;5129304;27;20540;-73
2022/10/17 08:40:06;;;;;;;4.53;1.60;;;;;;;;;;5128884;27;20510;-72
2022/10/17 08:42:59;;;;;;;4.30;1.75;;;;;;;;;;5129126;27;20039;-72
2022/10/17 08:45:51;;;;;;;3.70;1.60;;;;;;;;;;5129336;27;20047;-72
2022/10/17 08:48:25;;;;;;;3.47;1.40;;;;;;;;;;5129005;27;20051;-72
2022/10/17 08:50:58;;;;;;;2.42;1.50;;;;;;;;;;5127257;27;20043;-73
2022/10/17 08:53:46;;;;;;;4.22;1.73;;;;;;;;;;5128641;27;20054;-72
2022/10/17 08:56:16;;;;;;;2.88;1.65;;;;;;;;;;5128056;27;20047;-72
2022/10/17 08:58:52;;;;;;;2.67;1.42;;;;;;;;;;5128649;27;20050;-72
2022/10/17 09:01:58;;;;;;;4.35;1.30;;;;;;;;;;5128592;27;20608;-73
2022/10/17 09:04:40;;;;;;;5.60;1.35;;;;;;;;;;5129050;27;20391;-72
2022/10/17 09:07:21;;;;;;;3.45;1.40;;;;;;;;;;5128702;27;20047;-73
2022/10/17 09:10:10;;;;;;;3.80;1.73;;;;;;;;;;5128031;27;20055;-73
2022/10/17 09:13:06;;;;;;;5.13;1.60;;;;;;;;;;5128330;27;20050;-72
2022/10/17 09:15:48;;;;;;;2.85;1.25;;;;;;;;;;5128111;27;20043;-72
2022/10/17 09:18:37;;;;;;;6.20;1.45;;;;;;;;;;5128256;27;20046;-72
2022/10/17 09:21:24;;;;;;;5.32;1.30;;;;;;;;;;5128614;27;20050;-72
2022/10/17 09:24:03;;;;;;;4.03;1.50;;;;;;;;;;5127117;27;20047;-79
2022/10/17 09:26:39;;;;;;;3.33;1.60;;;;;;;;;;5128207;27;20724;-72
2022/10/17 09:29:22;;;;;;;2.50;1.60;;;;;;;;;;5128564;27;20087;-72
2022/10/17 09:32:03;;;;;;;1.73;1.40;;;;;;;;;;5128711;27;20505;-72
2022/10/17 09:34:34;;;;;;;3.08;1.50;;;;;;;;;;5127964;27;20039;-72
2022/10/17 09:37:13;;;;;;;8.13;1.75;;;;;;;;;;5128149;27;20043;-72
2022/10/17 09:39:44;;;;;;;7.22;1.40;;;;;;;;;;5128158;27;20808;-74
2022/10/17 09:42:20;;;;;;;4.85;1.65;;;;;;;;;;5126198;27;20051;-76
2022/10/17 09:44:53;;;;;;;;;;;;;;;;;;5128360;27;20047;-73
2022/10/17 09:47:40;;;;;;;5.35;1.35;;;;;;;;;;5127496;27;19923;-72
2022/10/17 09:50:36;;;;;;;4.97;1.70;;;;;;;;;;5127830;27;20035;-72
2022/10/17 09:53:14;;;;;;;2.35;1.15;;;;;;;;;;5126227;27;20443;-73
2022/10/17 09:55:48;;;;;;;3.92;1.38;;;;;;;;;;5127556;27;20051;-76
2022/10/17 09:58:20;;;;;;;3.42;1.10;;;;;;;;;;5127793;27;20778;-73
2022/10/17 10:00:51;;;;;;;3.33;1.42;;;;;;;;;;5128198;27;20047;-72
2022/10/17 10:03:26;;;;;;;5.60;1.10;;;;;;;;;;5125996;27;20395;-74
2022/10/17 10:06:04;;;;;;;4.18;1.42;;;;;;;;;;5127531;27;20043;-73
2022/10/17 10:08:54;;;;;;;5.68;1.50;;;;;;;;;;5126708;27;20054;-73
2022/10/17 10:11:46;;;;;;;6.18;1.80;;;;;;;;;;5127124;27;20047;-72
2022/10/17 10:14:38;;;;;;;4.72;1.13;;;;;;;;;;5127664;27;20050;-72
2022/10/17 10:17:42;;;;;;;4.78;1.15;;;;;;;;;;5127291;27;20058;-72
2022/10/17 10:20:33;;;;;;;2.25;1.20;;;;;;;;;;5127040;27;20062;-75
2022/10/17 10:23:11;;;;;;;4.47;1.02;;;;;;;;;;5127104;27;20414;-73
2022/10/17 10:25:55;;;;;;;3.10;1.08;;;;;;;;;;5127320;27;20051;-74
2022/10/17 10:28:33;;;;;;;6.90;1.20;;;;;;;;;;5127717;27;20050;-74
2022/10/17 10:31:08;;;;;;;5.00;1.48;;;;;;;;;;5127705;27;20039;-73
2022/10/17 10:33:43;;;;;;;4.60;1.17;;;;;;;;;;5126349;28;20062;-73
2022/10/17 10:36:21;;;;;;;3.75;1.10;;;;;;;;;;5127600;28;20043;-74
2022/10/17 10:38:56;;;;;;;5.88;1.30;;;;;;;;;;5126654;28;20043;-78
2022/10/17 10:41:46;;;;;;;6.22;1.17;;;;;;;;;;5127000;28;20055;-73
2022/10/17 10:44:25;;;;;;;4.03;1.05;;;;;;;;;;5127119;28;20039;-79
2022/10/17 10:47:13;;;;;;;3.05;1.00;;;;;;;;;;5126566;28;20043;-73
2022/10/17 10:49:44;;;;;;;5.38;1.40;;;;;;;;;;5126671;28;20039;-73
2022/10/17 10:52:33;;;;;;;5.88;1.17;;;;;;;;;;5126744;28;20128;-73
2022/10/17 10:55:15;;;;;;;4.40;1.30;;;;;;;;;;5125584;28;20047;-72
2022/10/17 10:57:48;;;;;;;4.80;1.33;;;;;;;;;;5126997;28;20051;-75
2022/10/17 11:00:25;;;;;;;4.13;1.65;;;;;;;;;;5125226;28;20051;-72
2022/10/17 11:03:15;;;;;;;3.92;1.23;;;;;;;;;;5126697;28;20506;-73
2022/10/17 11:05:55;;;;;;;3.80;1.17;;;;;;;;;;5126765;28;20043;-73
2022/10/17 11:08:40;;;;;;;6.47;1.90;;;;;;;;;;5125833;28;20063;-72
2022/10/17 11:11:27;;;;;;;8.52;1.35;;;;;;;;;;5126568;28;20054;-72
2022/10/17 11:14:11;;;;;;;2.28;1.33;;;;;;;;;;5126997;28;20051;-72
2022/10/17 11:16:57;;;;;;;5.20;1.48;;;;;;;;;;5126370;28;20516;-72
2022/10/17 11:19:29;;;;;;;7.47;1.10;;;;;;;;;;5129003;27;20047;-72
2022/10/17 11:22:16;;;;;;;5.50;1.20;;;;;;;;;;5130465;27;20070;-71
2022/10/17 11:24:55;;;;;;;5.35;1.40;;;;;;;;;;5130872;27;20485;-73
2022/10/17 11:27:30;;;;;;;4.07;1.27;;;;;;;;;;5131165;27;20035;-73
2022/10/17 11:30:02;;;;;;;2.45;1.20;;;;;;;;;;5131048;27;20042;-73
2022/10/17 11:33:10;;;;;;;5.07;1.17;;;;;;;;;;5128936;27;20109;-75
2022/10/17 11:35:45;;;;;;;6.05;1.48;;;;;;;;;;5127072;27;20413;-74
2022/10/17 11:38:14;;;;;;;4.47;1.60;;;;;;;;;;5129791;27;20051;-72
2022/10/17 11:40:52;;;;;;;5.43;1.90;;;;;;;;;;5129913;27;20047;-74
2022/10/17 11:43:34;;;;;;;5.40;1.65;;;;;;;;;;5129448;27;20047;-78
2022/10/17 11:46:31;;;;;;;4.60;1.92;;;;;;;;;;5129141;27;20528;-73
2022/10/17 11:49:12;;;;;;;4.82;1.70;;;;;;;;;;5129797;27;20051;-73
2022/10/17 11:51:53;;;;;;;2.85;1.70;;;;;;;;;;5129502;27;20043;-73
2022/10/17 11:54:48;;;;;;;2.97;1.88;;;;;;;;;;5130235;27;20043;-73
2022/10/17 11:57:38;;;;;;;7.18;2.28;;;;;;;;;;5130260;27;20050;-73
2022/10/17 12:00:38;;;;;;;8.50;3.15;;;;;;;;;;5129553;27;20445;-77
2022/10/17 12:03:29;;;;;;;5.38;3.30;;;;;;;;;;5129525;27;20043;-73
2022/10/17 12:05:58;;;;;;;8.15;4.60;;;;;;;;;;5129819;27;20394;-74
2022/10/17 12:08:52;;;;;;;6.22;4.75;;;;;;;;;;5129514;27;20046;-76
2022/10/17 12:11:41;;;;;;;7.63;4.78;;;;;;;;;;5129743;27;20058;-72
2022/10/17 12:14:48;;;;;;;19.00;5.85;;;;;;;;;;5129581;27;20043;-74
2022/10/17 12:17:31;;;;;;;7.30;4.82;;;;;;;;;;5129357;27;20060;-72
2022/10/17 12:20:34;;;;;;;10.45;4.28;;;;;;;;;;5128894;27;20047;-72
2022/10/17 12:23:13;;;;;;;5.82;4.20;;;;;;;;;;5119581;27;20055;-72
2022/10/17 12:25:52;;;;;;;8.40;3.45;;;;;;;;;;5129484;27;20520;-75
2022/10/17 12:28:38;;;;;;;6.30;2.80;;;;;;;;;;5129494;27;20051;-74
2022/10/17 12:31:11;;;;;;;5.28;2.50;;;;;;;;;;5127842;27;20044;-73
2022/10/17 12:33:56;;;;;;;6.60;2.22;;;;;;;;;;5129320;27;20050;-74
2022/10/17 12:36:29;;;;;;;5.65;2.38;;;;;;;;;;5128983;27;20055;-72
2022/10/17 12:39:02;;;;;;;7.63;3.20;;;;;;;;;;5128993;27;20050;-73
2022/10/17 12:41:38;;;;;;;6.75;3.08;;;;;;;;;;5127438;27;20051;-74
2022/10/17 12:44:14;;;;;;;4.55;2.33;;;;;;;;;;5128552;27;20387;-72
2022/10/17 12:46:54;;;;;;;5.70;2.40;;;;;;;;;;5128555;27;20047;-74
2022/10/17 12:49:46;;;;;;;7.25;2.30;;;;;;;;;;5129064;27;20043;-74
2022/10/17 12:52:34;;;;;;;4.57;2.35;;;;;;;;;;5129930;27;20498;-73
2022/10/17 12:55:05;;;;;;;9.15;2.40;;;;;;;;;;5128936;27;20054;-73
2022/10/17 12:57:41;;;;;;;4.38;2.05;;;;;;;;;;5128501;27;20054;-75
2022/10/17 13:00:31;;;;;;;3.40;2.28;;;;;;;;;;5129155;27;20520;-73
2022/10/17 13:03:16;;;;;;;3.42;1.83;;;;;;;;;;5128452;27;20069;-74
2022/10/17 13:06:06;;;;;;;6.13;2.10;;;;;;;;;;5128969;27;20070;-72
2022/10/17 13:08:42;;;;;;;6.57;2.13;;;;;;;;;;5128218;27;20043;-72
2022/10/17 13:11:14;;;;;;;8.02;2.22;;;;;;;;;;5128152;27;20535;-74
2022/10/17 13:13:49;;;;;;;4.95;2.10;;;;;;;;;;5128068;27;20050;-73
2022/10/17 13:16:27;;;;;;;4.75;1.90;;;;;;;;;;5128496;27;20035;-75
2022/10/17 13:18:59;;;;;;;3.22;2.00;;;;;;;;;;5128762;27;20054;-76
2022/10/17 13:21:29;;;;;;;3.17;1.77;;;;;;;;;;5128313;27;20061;-76
2022/10/17 13:24:00;;;;;;;5.70;2.00;;;;;;;;;;5128611;27;20043;-73
2022/10/17 13:26:29;;;;;;;5.43;1.73;;;;;;;;;;5128508;27;20061;-74
2022/10/17 13:29:11;;;;;;;5.30;2.17;;;;;;;;;;5127927;27;20050;-71
2022/10/17 13:31:43;;;;;;;3.95;1.48;;;;;;;;;;5126447;27;20517;-73
2022/10/17 13:34:22;;;;;;;5.15;1.77;;;;;;;;;;5128322;27;20383;-74
2022/10/17 13:37:14;;;;;;;3.60;1.70;;;;;;;;;;5127915;27;20065;-72
2022/10/17 13:39:47;;;;;;;4.72;1.70;;;;;;;;;;5128098;27;20062;-73
2022/10/17 13:42:36;;;;;;;6.70;2.90;;;;;;;;;;5127375;27;20054;-74
2022/10/17 13:45:18;;;;;;;4.13;1.52;;;;;;;;;;5128059;27;20057;-72
2022/10/17 13:47:48;;;;;;;2.92;1.38;;;;;;;;;;5128508;27;20039;-74
2022/10/17 13:50:36;;;;;;;3.03;1.40;;;;;;;;;;5128251;27;20410;-73
2022/10/17 13:53:18;;;;;;;3.13;1.73;;;;;;;;;;5127495;27;20047;-72
2022/10/17 13:56:17;;;;;;;7.28;2.40;;;;;;;;;;5127475;27;20877;-78
2022/10/17 13:59:19;;;;;;;5.25;2.75;;;;;;;;;;5126329;27;20513;-72
2022/10/17 14:01:50;;;;;;;7.35;3.88;;;;;;;;;;5127463;27;20047;-74
2022/10/17 14:04:21;;;;;;;6.07;2.58;;;;;;;;;;5126279;27;20046;-72
2022/10/17 14:06:51;;;;;;;5.18;1.65;;;;;;;;;;5127704;27;20502;-75
2022/10/17 14:09:28;;;;;;;6.72;1.70;;;;;;;;;;5127351;27;20047;-73
2022/10/17 14:11:58;;;;;;;4.18;1.42;;;;;;;;;;5127208;27;20047;-73
2022/10/17 14:14:28;;;;;;;4.05;1.48;;;;;;;;;;5127347;27;20656;-74
2022/10/17 14:17:25;;;;;;;4.25;1.70;;;;;;;;;;5128073;27;20035;-72
2022/10/17 14:20:02;;;;;;;4.25;1.35;;;;;;;;;;5126667;27;20039;-73
2022/10/17 14:22:52;;;;;;;6.00;1.95;;;;;;;;;;5127428;27;21080;-73
2022/10/17 14:25:43;;;;;;;5.15;1.55;;;;;;;;;;5125356;27;20055;-74
2022/10/17 14:28:15;;;;;;;5.18;1.60;;;;;;;;;;5127309;27;20402;-75
2022/10/17 14:30:50;;;;;;;4.40;1.45;;;;;;;;;;5125386;27;20051;-74
2022/10/17 14:33:29;;;;;;;3.35;1.17;;;;;;;;;;5125099;27;20051;-72
2022/10/17 14:36:01;;;;;;;4.32;1.63;;;;;;;;;;5127114;28;20055;-72
2022/10/17 14:38:31;;;;;;;10.25;2.15;;;;;;;;;;5127136;28;20409;-73
2022/10/17 14:41:09;;;;;;;5.63;2.42;;;;;;;;;;5127021;28;20055;-72
2022/10/17 14:44:05;;;;;;;3.33;1.60;;;;;;;;;;5127068;28;20517;-72
2022/10/17 14:46:36;;;;;;;4.47;1.45;;;;;;;;;;5127488;28;20555;-73
2022/10/17 14:49:15;;;;;;;1.60;1.17;;;;;;;;;;5127096;28;20054;-73
2022/10/17 14:52:16;;;;;;;3.15;1.55;;;;;;;;;;5126173;28;20062;-72
2022/10/17 14:54:48;;;;;;;4.95;1.25;;;;;;;;;;5130816;27;20035;-74
2022/10/17 14:57:25;;;;;;;4.07;1.63;;;;;;;;;;5131758;27;20085;-72
2022/10/17 14:59:56;;;;;;;5.50;2.10;;;;;;;;;;5129242;27;20047;-73
2022/10/17 15:02:28;;;;;;;4.20;1.17;;;;;;;;;;5130492;27;20050;-76
2022/10/17 15:04:59;;;;;;;3.13;1.33;;;;;;;;;;5130165;27;20050;-75
2022/10/17 15:07:29;;;;;;;6.13;2.30;;;;;;;;;;5130862;27;20035;-73
2022/10/17 15:09:59;;;;;;;3.15;1.20;;;;;;;;;;5128942;27;20063;-72
2022/10/17 15:12:30;;;;;;;6.60;1.88;;;;;;;;;;5129833;27;20405;-73
2022/10/17 15:15:00;;;;;;;1.92;1.30;;;;;;;;;;5131059;27;20058;-73
2022/10/17 15:17:33;;;;;;;4.30;1.60;;;;;;;;;;5129530;27;20514;-75
2022/10/17 15:20:11;;;;;;;2.85;1.50;;;;;;;;;;5130475;27;20070;-75
2022/10/17 15:22:41;;;;;;;5.07;1.70;;;;;;;;;;5130761;27;20066;-73
2022/10/17 15:25:11;;;;;;;5.20;1.25;;;;;;;;;;5128798;27;20551;-73
2022/10/17 15:27:41;;;;;;;2.75;1.65;;;;;;;;;;5131145;27;20051;-73
2022/10/17 15:30:28;;;;;;;3.20;1.25;;;;;;;;;;5130317;27;20051;-74
2022/10/17 15:32:59;;;;;;;2.80;1.48;;;;;;;;;;5130385;27;20051;-72
2022/10/17 15:35:29;;;;;;;4.40;1.42;;;;;;;;;;5129097;27;20503;-73
2022/10/17 15:37:59;;;;;;;5.25;1.80;;;;;;;;;;5130456;27;20047;-74
2022/10/17 15:40:30;;;;;;;4.32;1.52;;;;;;;;;;5130499;27;20039;-73
2022/10/17 15:43:00;;;;;;;4.43;1.90;;;;;;;;;;5129831;27;20391;-72
2022/10/17 15:45:31;;;;;;;6.00;1.95;;;;;;;;;;5130493;27;20047;-73